createdAt,value
2023-01-30T00:04:37.817Z,70.30
2023-01-30T00:09:41.297Z,70.00
2023-01-30T00:14:44.780Z,70.10
2023-01-30T00:19:49.838Z,70.10
2023-01-30T00:24:53.357Z,69.90
2023-01-30T00:30:02.812Z,69.70
2023-01-30T00:35:09.065Z,69.60
2023-01-30T00:40:14.531Z,69.70
2023-01-30T00:45:35.692Z,69.70
2023-01-30T00:50:46.606Z,69.70
2023-01-30T00:55:52.085Z,69.70
2023-01-30T01:00:55.810Z,69.70
2023-01-30T01:06:00.905Z,69.80
2023-01-30T01:11:04.628Z,69.80
2023-01-30T01:16:08.278Z,69.80
2023-01-30T01:21:13.512Z,70.00
2023-01-30T01:26:18.420Z,69.90
2023-01-30T01:31:22.842Z,69.80
2023-01-30T01:41:51.410Z,69.90
2023-01-30T01:46:59.671Z,70.00
2023-01-30T01:52:08.812Z,70.00
2023-01-30T01:57:15.402Z,70.00
2023-01-30T02:02:19.370Z,70.20
2023-01-30T02:07:24.272Z,70.30
2023-01-30T02:12:28.114Z,70.20
2023-01-30T02:17:31.521Z,70.30
2023-01-30T02:23:00.148Z,70.20
2023-01-30T02:28:51.511Z,70.20
2023-01-30T02:34:11.265Z,70.00
2023-01-30T02:39:22.158Z,69.90
2023-01-30T02:44:31.515Z,70.70
2023-01-30T02:49:40.012Z,69.70
2023-01-30T02:54:43.452Z,69.70
2023-01-30T02:59:50.556Z,69.60
2023-01-30T03:05:10.806Z,69.60
2023-01-30T03:10:24.819Z,69.60
2023-01-30T03:15:34.417Z,69.70
2023-01-30T03:20:41.326Z,69.60
2023-01-30T03:25:47.164Z,69.50
2023-01-30T03:30:50.768Z,69.50
2023-01-30T03:35:56.102Z,69.40
2023-01-30T03:40:59.586Z,69.40
2023-01-30T03:46:03.044Z,69.50
2023-01-30T03:51:08.123Z,69.40
2023-01-30T03:56:11.776Z,69.30
2023-01-30T04:01:15.201Z,69.30
2023-01-30T04:06:19.984Z,69.30
2023-01-30T04:11:23.654Z,69.00
2023-01-30T04:16:28.394Z,68.30
2023-01-30T04:21:33.223Z,66.80
2023-01-30T04:26:36.612Z,67.30
2023-01-30T04:31:40.179Z,67.40
2023-01-30T04:36:45.708Z,67.10
2023-01-30T04:41:49.165Z,66.70
2023-01-30T04:46:52.573Z,67.10
2023-01-30T04:51:57.387Z,67.40
2023-01-30T04:57:00.866Z,68.00
2023-01-30T05:02:04.345Z,68.10
2023-01-30T05:07:09.249Z,68.20
2023-01-30T05:12:13.203Z,68.40
2023-01-30T05:17:16.670Z,68.30
2023-01-30T05:22:21.475Z,68.00
2023-01-30T05:27:24.943Z,68.20
2023-01-30T05:32:30.560Z,68.30
2023-01-30T05:37:35.872Z,68.20
2023-01-30T05:42:39.512Z,68.40
2023-01-30T05:47:43.239Z,68.20
2023-01-30T05:52:48.298Z,68.30
2023-01-30T05:57:51.980Z,68.30
2023-01-30T06:02:55.456Z,69.30
2023-01-30T06:08:00.330Z,68.10
2023-01-30T06:13:03.765Z,67.60
2023-01-30T06:18:07.222Z,67.90
2023-01-30T06:23:11.952Z,68.10
2023-01-30T06:28:16.702Z,68.30
2023-01-30T06:33:20.992Z,68.10
2023-01-30T06:38:26.293Z,68.10
2023-01-30T06:43:29.892Z,68.30
2023-01-30T06:48:33.287Z,68.20
2023-01-30T06:53:38.135Z,68.30
2023-01-30T06:58:42.117Z,68.40
2023-01-30T07:03:45.603Z,68.60
2023-01-30T07:08:50.547Z,68.70
2023-01-30T07:13:54.303Z,68.80
2023-01-30T07:18:58.590Z,68.70
2023-01-30T07:24:03.379Z,68.70
2023-01-30T07:29:06.883Z,68.60
2023-01-30T07:34:10.300Z,68.30
2023-01-30T07:39:15.214Z,68.40
2023-01-30T07:44:18.648Z,68.60
2023-01-30T07:49:22.323Z,69.30
2023-01-30T07:54:27.799Z,70.40
2023-01-30T07:59:31.456Z,71.40
2023-01-30T08:04:35.046Z,72.00
2023-01-30T08:09:40.118Z,72.10
2023-01-30T08:14:43.520Z,72.30
2023-01-30T08:19:47.238Z,72.30
2023-01-30T08:24:52.023Z,72.00
2023-01-30T08:29:55.480Z,71.80
2023-01-30T08:34:59.111Z,71.90
2023-01-30T08:40:04.668Z,71.80
2023-01-30T08:45:09.234Z,71.50
2023-01-30T08:50:12.970Z,71.70
2023-01-30T08:55:18.021Z,72.00
2023-01-30T09:00:22.394Z,72.60
2023-01-30T09:05:26.247Z,72.90
2023-01-30T09:10:31.122Z,73.00
2023-01-30T09:15:34.726Z,73.20
2023-01-30T09:20:38.920Z,73.40
2023-01-30T09:25:46.209Z,73.30
2023-01-30T09:30:49.745Z,73.20
2023-01-30T09:35:53.360Z,73.20
2023-01-30T09:41:28.194Z,73.20
2023-01-30T09:46:40.807Z,73.30
2023-01-30T09:51:49.854Z,73.70
2023-01-30T09:57:21.851Z,74.10
2023-01-30T10:02:40.057Z,74.80
2023-01-30T10:08:02.588Z,75.40
2023-01-30T10:13:20.003Z,76.00
2023-01-30T10:18:40.084Z,77.10
2023-01-30T10:24:01.010Z,78.40
2023-01-30T10:29:09.074Z,79.40
2023-01-30T10:34:16.248Z,79.80
2023-01-30T10:39:25.742Z,80.00
2023-01-30T10:44:30.808Z,80.10
2023-01-30T10:49:41.642Z,80.80
2023-01-30T10:54:54.227Z,80.40
2023-01-30T11:00:04.648Z,80.50
2023-01-30T11:05:16.162Z,80.80
2023-01-30T11:10:21.405Z,80.80
2023-01-30T11:15:26.412Z,81.60
2023-01-30T11:20:29.981Z,80.50
2023-01-30T11:25:52.865Z,80.40
2023-01-30T11:31:04.313Z,80.40
2023-01-30T11:36:24.837Z,80.50
2023-01-30T11:41:29.502Z,80.30
2023-01-30T11:46:36.843Z,80.10
2023-01-30T11:51:42.011Z,79.80
2023-01-30T11:56:53.089Z,79.70
2023-01-30T12:02:07.234Z,79.50
2023-01-30T12:07:18.938Z,79.40
2023-01-30T12:12:32.177Z,79.20
2023-01-30T12:17:45.433Z,79.00
2023-01-30T12:22:59.519Z,79.00
2023-01-30T12:28:05.874Z,79.90
2023-01-30T12:38:32.156Z,81.70
2023-01-30T12:43:58.104Z,81.30
2023-01-30T12:49:22.289Z,80.80
2023-01-30T12:54:41.888Z,80.00
2023-01-30T12:59:52.497Z,80.10
2023-01-30T13:05:15.553Z,80.30
2023-01-30T13:10:25.708Z,80.20
2023-01-30T13:15:42.833Z,79.60
2023-01-30T13:20:54.766Z,79.40
2023-01-30T13:26:01.193Z,79.30
2023-01-30T13:31:08.383Z,78.90
2023-01-30T13:36:17.212Z,78.90
2023-01-30T13:41:21.111Z,79.00
2023-01-30T13:46:28.694Z,79.20
2023-01-30T13:51:44.284Z,79.60
2023-01-30T13:56:54.487Z,80.20
2023-01-30T14:02:21.509Z,79.70
2023-01-30T14:07:30.474Z,78.40
2023-01-30T14:12:37.449Z,78.10
2023-01-30T14:17:57.827Z,78.00
2023-01-30T14:23:05.352Z,77.10
2023-01-30T14:28:49.398Z,76.30
2023-01-30T14:33:53.418Z,76.30
2023-01-30T14:39:38.910Z,75.50
2023-01-30T14:45:16.931Z,75.60
2023-01-30T14:50:23.724Z,75.00
2023-01-30T14:55:30.855Z,75.30
2023-01-30T15:00:38.946Z,74.50
2023-01-30T15:05:45.654Z,74.80
2023-01-30T15:11:02.111Z,74.50
2023-01-30T15:16:15.835Z,74.10
2023-01-30T15:21:37.311Z,74.40
2023-01-30T15:26:55.468Z,74.10
2023-01-30T15:32:01.063Z,74.70
2023-01-30T15:37:04.603Z,74.30
2023-01-30T15:42:16.263Z,73.70
2023-01-30T15:47:52.412Z,73.90
2023-01-30T15:52:57.455Z,73.80
2023-01-30T15:58:06.892Z,73.70
2023-01-30T16:03:14.955Z,73.80
2023-01-30T16:08:24.130Z,73.60
2023-01-30T16:13:30.084Z,73.40
2023-01-30T16:18:37.285Z,72.50
2023-01-30T16:23:44.649Z,72.60
2023-01-30T16:28:51.232Z,72.30
2023-01-30T16:33:54.745Z,72.30
2023-01-30T16:38:58.419Z,72.60
2023-01-30T16:44:17.911Z,72.30
2023-01-30T16:49:25.969Z,72.20
2023-01-30T16:54:31.189Z,72.50
2023-01-30T16:59:38.732Z,72.60
2023-01-30T17:04:43.368Z,72.20
2023-01-30T17:09:47.612Z,71.60
2023-01-30T17:15:12.835Z,71.40
2023-01-30T17:20:17.683Z,71.00
2023-01-30T17:25:30.782Z,70.70
2023-01-30T17:30:35.880Z,71.10
2023-01-30T17:35:40.557Z,71.40
2023-01-30T17:40:44.409Z,72.20
2023-01-30T17:45:49.509Z,74.80
2023-01-30T17:50:53.261Z,76.20
2023-01-30T17:55:58.011Z,76.80
2023-01-30T18:01:02.964Z,77.80
2023-01-30T18:06:07.245Z,78.30
2023-01-30T18:11:12.049Z,78.60
2023-01-30T18:16:21.440Z,78.80
2023-01-30T18:21:25.462Z,79.20
2023-01-30T18:26:32.288Z,80.00
2023-01-30T18:31:37.638Z,80.30
2023-01-30T18:36:41.346Z,80.40
2023-01-30T18:41:44.839Z,80.70
2023-01-30T18:46:50.415Z,81.20
2023-01-30T18:51:55.634Z,81.50
2023-01-30T18:56:59.051Z,81.60
2023-01-30T19:02:04.276Z,81.60
2023-01-30T19:07:07.996Z,81.60
2023-01-30T19:12:31.002Z,82.00
2023-01-30T19:17:35.830Z,82.40
2023-01-30T19:22:39.714Z,82.30
2023-01-30T19:27:44.178Z,82.30
2023-01-30T19:32:48.967Z,82.30
2023-01-30T19:37:55.101Z,82.20
2023-01-30T19:43:05.733Z,81.90
2023-01-30T19:48:15.348Z,81.70
2023-01-30T19:53:19.046Z,81.50
2023-01-30T19:58:22.618Z,81.30
2023-01-30T20:03:28.121Z,81.30
2023-01-30T20:08:32.774Z,81.90
2023-01-30T20:13:36.893Z,83.10
2023-01-30T20:18:43.051Z,83.50
2023-01-30T20:23:47.187Z,83.10
2023-01-30T20:28:51.478Z,83.10
2023-01-30T20:33:57.835Z,83.70
2023-01-30T20:39:04.409Z,84.20
2023-01-30T20:44:10.865Z,84.70
2023-01-30T20:49:18.625Z,85.10
2023-01-30T20:54:23.960Z,85.50
2023-01-30T20:59:28.615Z,85.70
2023-01-30T21:04:33.504Z,86.00
2023-01-30T21:09:37.054Z,86.40
2023-01-30T21:14:41.062Z,86.40
2023-01-30T21:19:45.895Z,86.50
2023-01-30T21:24:49.747Z,86.40
2023-01-30T21:29:53.183Z,86.50
2023-01-30T21:34:58.257Z,86.40
2023-01-30T21:40:19.474Z,85.80
2023-01-30T21:45:23.362Z,86.00
2023-01-30T21:50:29.736Z,86.00
2023-01-30T21:55:33.460Z,85.60
2023-01-30T22:00:36.999Z,85.60
2023-01-30T22:05:46.484Z,85.30
2023-01-30T22:10:49.858Z,85.60
2023-01-30T22:15:53.518Z,85.60
2023-01-30T22:21:03.935Z,85.70
2023-01-30T22:26:08.335Z,85.70
2023-01-30T22:31:14.916Z,85.00
2023-01-30T22:36:20.521Z,84.90
2023-01-30T22:41:26.049Z,84.90
2023-01-30T22:46:31.583Z,84.50
2023-01-30T22:51:38.629Z,83.70
2023-01-30T22:56:46.721Z,83.70
2023-01-30T23:01:51.958Z,83.60
2023-01-30T23:06:57.458Z,83.20
2023-01-30T23:12:18.617Z,83.60
2023-01-30T23:17:39.892Z,84.10
2023-01-30T23:22:45.197Z,84.30
2023-01-30T23:27:48.615Z,84.10
2023-01-30T23:32:51.974Z,83.80
2023-01-30T23:38:14.357Z,83.20
2023-01-30T23:43:17.944Z,83.00
2023-01-30T23:48:21.301Z,82.40
2023-01-30T23:53:26.240Z,82.10
2023-01-30T23:58:29.752Z,81.70
